createdAt,value
2022-10-19T00:01:16.538Z,99625.44
2022-10-19T00:03:46.402Z,99626.38
2022-10-19T00:06:25.984Z,99639.66
2022-10-19T00:09:04.653Z,99635.88
2022-10-19T00:11:35.197Z,99635.78
2022-10-19T00:14:02.376Z,99641.91
2022-10-19T00:16:34.010Z,99632.06
2022-10-19T00:19:05.353Z,99633.94
2022-10-19T00:21:33.007Z,99630.56
2022-10-19T00:23:59.746Z,99633.28
2022-10-19T00:26:27.081Z,99633.94
2022-10-19T00:28:55.856Z,99633.94
2022-10-19T00:31:23.571Z,99633.00
2022-10-19T00:33:50.645Z,99638.22
2022-10-19T00:36:27.235Z,99642.69
2022-10-19T00:38:55.874Z,99636.59
2022-10-19T00:41:26.582Z,99631.22
2022-10-19T00:43:59.766Z,99630.31
2022-10-19T00:46:30.422Z,99626.75
2022-10-19T00:49:13.786Z,99622.38
2022-10-19T00:51:47.965Z,99625.97
2022-10-19T00:54:17.666Z,99619.94
2022-10-19T00:56:48.958Z,99618.13
2022-10-19T00:59:21.031Z,99628.81
2022-10-19T01:01:49.920Z,99615.75
2022-10-19T01:04:18.221Z,99611.38
2022-10-19T01:06:45.526Z,99611.59
2022-10-19T01:09:12.461Z,99607.19
2022-10-19T01:12:03.806Z,99598.44
2022-10-19T01:15:15.107Z,99603.03
2022-10-19T01:18:31.580Z,99594.34
2022-10-19T01:21:17.512Z,99607.81
2022-10-19T01:24:21.574Z,99599.97
2022-10-19T01:27:24.505Z,99598.31
2022-10-19T01:30:01.922Z,99594.06
2022-10-19T01:32:55.987Z,99581.88
2022-10-19T01:35:46.519Z,99590.69
2022-10-19T01:38:44.580Z,99590.09
2022-10-19T01:41:20.245Z,99590.16
2022-10-19T01:44:19.163Z,99592.94
2022-10-19T01:47:04.396Z,99584.19
2022-10-19T01:50:01.462Z,99574.59
2022-10-19T01:52:31.734Z,99586.06
2022-10-19T01:55:04.394Z,99591.22
2022-10-19T01:57:41.100Z,99584.19
2022-10-19T02:00:13.061Z,99586.91
2022-10-19T02:02:46.590Z,99588.72
2022-10-19T02:05:17.225Z,99586.84
2022-10-19T02:07:51.309Z,99584.25
2022-10-19T02:10:20.269Z,99587.97
2022-10-19T02:12:49.693Z,99587.97
2022-10-19T02:15:22.629Z,99586.31
2022-10-19T02:17:56.980Z,99582.75
2022-10-19T02:20:24.408Z,99586.19
2022-10-19T02:22:51.545Z,99586.91
2022-10-19T02:25:19.293Z,99583.34
2022-10-19T02:27:46.395Z,99584.00
2022-10-19T02:30:19.536Z,99581.47
2022-10-19T02:32:46.532Z,99580.63
2022-10-19T02:35:15.479Z,99578.81
2022-10-19T02:37:43.231Z,99579.66
2022-10-19T02:40:11.447Z,99576.94
2022-10-19T02:43:14.902Z,99571.59
2022-10-19T02:46:00.300Z,99571.38
2022-10-19T02:48:31.320Z,99574.81
2022-10-19T02:50:58.237Z,99571.25
2022-10-19T02:53:25.210Z,99586.22
2022-10-19T02:55:52.245Z,99577.41
2022-10-19T02:58:19.282Z,99578.44
2022-10-19T03:00:46.129Z,99572.31
2022-10-19T03:03:13.211Z,99582.06
2022-10-19T03:05:40.105Z,99580.19
2022-10-19T03:08:07.125Z,99579.41
2022-10-19T03:10:34.004Z,99584.66
2022-10-19T03:13:00.983Z,99579.47
2022-10-19T03:15:29.954Z,99565.34
2022-10-19T03:17:57.411Z,99575.84
2022-10-19T03:20:24.381Z,99574.97
2022-10-19T03:25:18.672Z,99560.97
2022-10-19T03:27:45.884Z,99559.19
2022-10-19T03:30:12.936Z,99566.22
2022-10-19T03:32:40.021Z,99567.22
2022-10-19T03:35:07.713Z,99566.41
2022-10-19T03:37:35.075Z,99569.22
2022-10-19T03:40:02.446Z,99570.19
2022-10-19T03:42:29.620Z,99570.25
2022-10-19T03:44:56.511Z,99573.88
2022-10-19T03:47:23.748Z,99568.69
2022-10-19T03:49:50.725Z,99583.00
2022-10-19T03:52:19.440Z,99589.31
2022-10-19T03:54:50.904Z,99591.19
2022-10-19T03:57:18.410Z,99598.31
2022-10-19T03:59:45.248Z,99589.63
2022-10-19T04:02:12.248Z,99589.75
2022-10-19T04:04:39.082Z,99579.44
2022-10-19T04:07:06.036Z,99587.25
2022-10-19T04:09:32.897Z,99584.59
2022-10-19T04:11:59.879Z,99583.72
2022-10-19T04:14:32.272Z,99579.44
2022-10-19T04:17:04.426Z,99579.38
2022-10-19T04:19:32.960Z,99575.91
2022-10-19T04:22:00.249Z,99576.78
2022-10-19T04:24:27.735Z,99574.19
2022-10-19T04:26:56.110Z,99585.72
2022-10-19T04:29:29.557Z,99585.84
2022-10-19T04:31:57.890Z,99584.19
2022-10-19T04:34:25.227Z,99587.75
2022-10-19T04:36:53.503Z,99587.75
2022-10-19T04:39:20.483Z,99597.44
2022-10-19T04:41:47.418Z,99589.50
2022-10-19T04:44:14.379Z,99588.63
2022-10-19T04:46:41.391Z,99589.38
2022-10-19T04:49:08.157Z,99584.91
2022-10-19T04:51:35.432Z,99584.00
2022-10-19T04:54:03.990Z,99568.16
2022-10-19T04:56:32.369Z,99573.47
2022-10-19T04:59:00.794Z,99572.66
2022-10-19T05:01:31.077Z,99579.75
2022-10-19T05:04:01.572Z,99574.56
2022-10-19T05:06:31.347Z,99579.13
2022-10-19T05:08:58.742Z,99593.47
2022-10-19T05:11:27.306Z,99591.66
2022-10-19T05:13:54.526Z,99587.22
2022-10-19T05:16:25.941Z,99595.25
2022-10-19T05:18:56.816Z,99598.88
2022-10-19T05:21:24.901Z,99603.38
2022-10-19T05:23:54.058Z,99595.56
2022-10-19T05:26:24.972Z,99597.41
2022-10-19T05:29:01.587Z,99603.63
2022-10-19T05:31:32.398Z,99601.84
2022-10-19T05:34:00.473Z,99598.31
2022-10-19T05:36:38.607Z,99604.47
2022-10-19T05:39:14.605Z,99606.34
2022-10-19T05:41:45.399Z,99607.22
2022-10-19T05:44:17.661Z,99606.28
2022-10-19T05:46:45.349Z,99611.53
2022-10-19T05:49:15.356Z,99617.72
2022-10-19T05:51:43.403Z,99623.88
2022-10-19T05:54:12.110Z,99626.56
2022-10-19T05:56:40.944Z,99631.25
2022-10-19T05:59:13.829Z,99631.94
2022-10-19T06:01:40.872Z,99634.53
2022-10-19T06:04:08.021Z,99636.28
2022-10-19T06:06:35.143Z,99636.16
2022-10-19T06:09:03.049Z,99635.25
2022-10-19T06:11:35.093Z,99646.03
2022-10-19T06:14:06.491Z,99643.38
2022-10-19T06:16:34.816Z,99648.00
2022-10-19T06:19:01.637Z,99644.63
2022-10-19T06:21:31.689Z,99649.97
2022-10-19T06:24:05.106Z,99651.78
2022-10-19T06:26:34.334Z,99666.75
2022-10-19T06:29:02.803Z,99660.53
2022-10-19T06:31:33.203Z,99660.53
2022-10-19T06:34:00.458Z,99662.56
2022-10-19T06:36:30.626Z,99666.06
2022-10-19T06:38:59.772Z,99674.06
2022-10-19T06:41:27.106Z,99671.41
2022-10-19T06:43:56.162Z,99668.75
2022-10-19T06:46:25.783Z,99671.28
2022-10-19T06:49:01.824Z,99668.59
2022-10-19T06:51:32.056Z,99677.28
2022-10-19T06:53:58.986Z,99675.47
2022-10-19T06:56:27.319Z,99677.28
2022-10-19T06:58:55.019Z,99698.47
2022-10-19T07:01:23.405Z,99685.22
2022-10-19T07:03:52.280Z,99690.41
2022-10-19T07:06:20.632Z,99691.28
2022-10-19T07:08:47.940Z,99689.56
2022-10-19T07:11:18.579Z,99689.00
2022-10-19T07:13:45.703Z,99697.00
2022-10-19T07:16:19.817Z,99700.56
2022-10-19T07:18:51.660Z,99700.50
2022-10-19T07:21:21.910Z,99702.34
2022-10-19T07:23:50.475Z,99699.75
2022-10-19T07:26:27.743Z,99694.53
2022-10-19T07:28:57.491Z,99699.72
2022-10-19T07:31:27.075Z,99703.22
2022-10-19T07:34:01.004Z,99701.56
2022-10-19T07:36:32.025Z,99711.38
2022-10-19T07:39:01.999Z,99717.50
2022-10-19T07:41:29.125Z,99716.59
2022-10-19T07:43:57.864Z,99722.03
2022-10-19T07:46:33.766Z,99713.38
2022-10-19T07:49:00.906Z,99717.19
2022-10-19T07:53:57.495Z,99711.09
2022-10-19T07:56:27.465Z,99715.34
2022-10-19T07:58:57.611Z,99723.97
2022-10-19T08:01:29.268Z,99722.88
2022-10-19T08:04:55.496Z,99727.44
2022-10-19T08:06:46.225Z,99719.53
2022-10-19T08:09:27.656Z,99721.97
2022-10-19T08:12:00.252Z,99732.31
2022-10-19T08:14:27.473Z,99734.91
2022-10-19T08:16:54.471Z,99731.41
2022-10-19T08:19:22.657Z,99727.53
2022-10-19T08:21:50.165Z,99735.19
2022-10-19T08:24:19.840Z,99734.06
2022-10-19T08:26:51.183Z,99728.03
2022-10-19T08:29:21.653Z,99732.44
2022-10-19T08:31:50.302Z,99729.69
2022-10-19T08:34:17.516Z,99731.44
2022-10-19T08:36:45.003Z,99736.03
2022-10-19T08:39:12.804Z,99736.09
2022-10-19T08:41:39.954Z,99732.28
2022-10-19T08:44:09.338Z,99725.94
2022-10-19T08:46:51.698Z,99721.38
2022-10-19T08:49:23.600Z,99716.81
2022-10-19T08:52:00.838Z,99728.44
2022-10-19T08:55:00.992Z,99726.69
2022-10-19T08:58:20.797Z,99722.13
2022-10-19T09:01:05.683Z,99731.09
2022-10-19T09:03:55.875Z,99725.63
2022-10-19T09:06:41.204Z,99719.53
2022-10-19T09:09:14.585Z,99730.13
2022-10-19T09:11:48.095Z,99722.97
2022-10-19T09:14:47.413Z,99725.22
2022-10-19T09:17:17.168Z,99724.28
2022-10-19T09:19:44.410Z,99722.41
2022-10-19T09:22:32.713Z,99733.28
2022-10-19T09:25:32.354Z,99733.41
2022-10-19T09:28:19.591Z,99725.91
2022-10-19T09:30:52.264Z,99725.50
2022-10-19T09:33:38.726Z,99733.84
2022-10-19T09:36:08.164Z,99727.06
2022-10-19T09:38:35.179Z,99738.34
2022-10-19T09:41:18.645Z,99735.31
2022-10-19T09:43:53.407Z,99746.34
2022-10-19T09:46:33.715Z,99749.06
2022-10-19T09:49:04.335Z,99740.03
2022-10-19T09:51:52.150Z,99747.13
2022-10-19T09:54:26.881Z,99740.25
2022-10-19T09:56:56.180Z,99736.44
2022-10-19T09:59:28.905Z,99751.47
2022-10-19T10:02:20.886Z,99740.25
2022-10-19T10:05:16.296Z,99746.31
2022-10-19T10:07:43.949Z,99744.50
2022-10-19T10:10:26.780Z,99746.97
2022-10-19T10:12:59.845Z,99761.84
2022-10-19T10:15:35.738Z,99755.97
2022-10-19T10:18:03.904Z,99747.84
2022-10-19T10:20:32.612Z,99751.16
2022-10-19T10:23:04.535Z,99755.06
2022-10-19T10:25:36.167Z,99744.38
2022-10-19T10:28:24.588Z,99746.09
2022-10-19T10:31:08.756Z,99740.84
2022-10-19T10:33:45.033Z,99738.81
2022-10-19T10:36:13.202Z,99740.66
2022-10-19T10:38:49.871Z,99735.03
2022-10-19T10:41:23.273Z,99738.19
2022-10-19T10:44:06.840Z,99738.81
2022-10-19T10:46:47.424Z,99738.50
2022-10-19T10:49:30.115Z,99742.91
2022-10-19T10:52:03.952Z,99743.56
2022-10-19T10:54:33.326Z,99743.41
2022-10-19T10:57:13.755Z,99742.38
2022-10-19T10:59:45.651Z,99749.28
2022-10-19T11:02:39.580Z,99743.88
2022-10-19T11:05:29.450Z,99742.94
2022-10-19T11:08:14.573Z,99748.03
2022-10-19T11:11:09.055Z,99743.69
2022-10-19T11:13:49.233Z,99735.72
2022-10-19T11:16:22.007Z,99738.25
2022-10-19T11:19:19.271Z,99740.16
2022-10-19T11:22:04.523Z,99731.91
2022-10-19T11:24:52.186Z,99732.72
2022-10-19T11:27:46.635Z,99716.72
2022-10-19T11:30:19.391Z,99724.06
2022-10-19T11:33:24.963Z,99720.88
2022-10-19T11:35:59.412Z,99710.81
2022-10-19T11:39:04.694Z,99722.44
2022-10-19T11:41:58.969Z,99726.06
2022-10-19T11:44:36.064Z,99713.88
2022-10-19T11:47:22.799Z,99721.84
2022-10-19T11:50:11.729Z,99709.28
2022-10-19T11:53:25.616Z,99710.81
2022-10-19T11:56:19.428Z,99701.72
2022-10-19T11:58:55.010Z,99715.94
2022-10-19T12:01:50.980Z,99714.84
2022-10-19T12:04:35.330Z,99708.69
2022-10-19T12:07:33.413Z,99700.91
2022-10-19T12:10:39.356Z,99697.00
2022-10-19T12:13:13.293Z,99695.28
2022-10-19T12:15:46.657Z,99695.75
2022-10-19T12:18:36.821Z,99699.94
2022-10-19T12:21:17.484Z,99694.41
2022-10-19T12:23:49.544Z,99681.94
2022-10-19T12:26:21.493Z,99682.78
2022-10-19T12:29:00.627Z,99680.00
2022-10-19T12:31:29.547Z,99678.06
2022-10-19T12:34:08.091Z,99682.53
2022-10-19T12:37:14.699Z,99679.78
2022-10-19T12:40:12.135Z,99676.81
2022-10-19T12:42:58.180Z,99676.63
2022-10-19T12:45:33.494Z,99677.47
2022-10-19T12:48:12.399Z,99683.56
2022-10-19T12:50:48.725Z,99683.44
2022-10-19T12:53:49.402Z,99679.34
2022-10-19T12:56:26.846Z,99673.13
2022-10-19T12:59:01.615Z,99675.72
2022-10-19T13:01:44.274Z,99665.09
2022-10-19T13:04:22.674Z,99663.53
2022-10-19T13:07:04.520Z,99668.06
2022-10-19T13:09:48.301Z,99672.22
2022-10-19T13:12:19.282Z,99660.50
2022-10-19T13:15:03.361Z,99653.25
2022-10-19T13:17:37.097Z,99644.19
2022-10-19T13:20:13.305Z,99653.84
2022-10-19T13:22:49.029Z,99654.63
2022-10-19T13:25:34.331Z,99657.13
2022-10-19T13:28:07.284Z,99658.00
2022-10-19T13:30:41.790Z,99663.16
2022-10-19T13:33:33.427Z,99665.47
2022-10-19T13:36:00.339Z,99668.22
2022-10-19T13:38:42.630Z,99665.63
2022-10-19T13:41:21.912Z,99658.66
2022-10-19T13:44:19.268Z,99658.84
2022-10-19T13:47:10.126Z,99659.66
2022-10-19T13:50:37.185Z,99658.56
2022-10-19T13:53:46.668Z,99651.97
2022-10-19T13:56:46.787Z,99654.63
2022-10-19T14:00:00.425Z,99652.94
2022-10-19T14:03:07.947Z,99650.66
2022-10-19T14:06:33.100Z,99656.31
2022-10-19T14:09:20.865Z,99656.22
2022-10-19T14:11:52.711Z,99645.47
2022-10-19T14:14:22.602Z,99645.41
2022-10-19T14:16:56.074Z,99647.22
2022-10-19T14:19:31.586Z,99660.69
2022-10-19T14:22:02.025Z,99649.16
2022-10-19T14:24:36.346Z,99649.22
2022-10-19T14:27:07.793Z,99644.63
2022-10-19T14:29:48.176Z,99652.66
2022-10-19T14:32:26.718Z,99645.53
2022-10-19T14:35:27.101Z,99650.91
2022-10-19T14:37:54.834Z,99651.06
2022-10-19T14:40:26.797Z,99648.41
2022-10-19T14:42:57.657Z,99649.34
2022-10-19T14:45:30.771Z,99648.41
2022-10-19T14:48:06.445Z,99654.66
2022-10-19T14:50:47.280Z,99649.34
2022-10-19T14:53:40.633Z,99651.88
2022-10-19T14:56:19.879Z,99640.38
2022-10-19T14:59:24.975Z,99639.66
2022-10-19T15:01:56.905Z,99645.91
2022-10-19T15:04:36.959Z,99637.28
2022-10-19T15:07:16.857Z,99642.72
2022-10-19T15:10:01.253Z,99644.72
2022-10-19T15:12:42.913Z,99645.38
2022-10-19T15:15:25.286Z,99645.56
2022-10-19T15:18:00.213Z,99642.84
2022-10-19T15:20:49.147Z,99640.94
2022-10-19T15:23:46.147Z,99643.66
2022-10-19T15:26:29.278Z,99637.41
2022-10-19T15:29:22.168Z,99636.47
2022-10-19T15:31:49.061Z,99634.97
2022-10-19T15:34:25.720Z,99631.81
2022-10-19T15:37:01.563Z,99635.78
2022-10-19T15:39:41.172Z,99634.22
2022-10-19T15:42:39.436Z,99624.88
2022-10-19T15:45:38.627Z,99625.97
2022-10-19T15:48:55.521Z,99626.03
2022-10-19T15:51:25.796Z,99629.81
2022-10-19T15:54:04.977Z,99634.13
2022-10-19T15:56:38.629Z,99635.94
2022-10-19T15:59:21.090Z,99638.63
2022-10-19T16:01:55.053Z,99635.38
2022-10-19T16:04:23.102Z,99639.91
2022-10-19T16:06:50.143Z,99640.69
2022-10-19T16:09:21.303Z,99640.69
2022-10-19T16:11:49.155Z,99648.53
2022-10-19T16:16:44.183Z,99649.38
2022-10-19T16:19:11.238Z,99644.84
2022-10-19T16:21:38.355Z,99647.59
2022-10-19T16:24:05.678Z,99652.13
2022-10-19T16:26:32.787Z,99648.53
2022-10-19T16:29:01.654Z,99649.25
2022-10-19T16:31:28.922Z,99651.34
2022-10-19T16:33:55.825Z,99654.91
2022-10-19T16:36:22.845Z,99655.81
2022-10-19T16:38:49.918Z,99658.41
2022-10-19T16:41:17.483Z,99655.81
2022-10-19T16:43:44.361Z,99654.16
2022-10-19T16:46:11.859Z,99660.31
2022-10-19T16:48:38.663Z,99663.81
2022-10-19T16:51:05.565Z,99671.66
2022-10-19T16:53:36.752Z,99667.44
2022-10-19T16:56:07.098Z,99662.13
2022-10-19T16:58:34.069Z,99665.69
2022-10-19T17:01:10.658Z,99671.06
2022-10-19T17:03:37.780Z,99667.72
2022-10-19T17:06:07.806Z,99674.09
2022-10-19T17:09:02.333Z,99674.09
2022-10-19T17:11:26.220Z,99674.22
2022-10-19T17:13:58.674Z,99667.25
2022-10-19T17:16:33.825Z,99680.69
2022-10-19T17:19:05.766Z,99679.69
2022-10-19T17:21:39.693Z,99673.53
2022-10-19T17:24:14.700Z,99685.06
2022-10-19T17:26:47.986Z,99682.53
2022-10-19T17:29:14.839Z,99685.25
2022-10-19T17:31:42.706Z,99688.91
2022-10-19T17:34:10.704Z,99684.56
2022-10-19T17:36:41.432Z,99690.97
2022-10-19T17:39:14.672Z,99690.25
2022-10-19T17:41:41.862Z,99694.69
2022-10-19T17:44:08.683Z,99699.22
2022-10-19T17:46:36.353Z,99698.47
2022-10-19T17:49:04.799Z,99700.41
2022-10-19T17:51:35.821Z,99699.72
2022-10-19T17:54:11.007Z,99700.81
2022-10-19T17:56:40.215Z,99696.59
2022-10-19T17:59:09.088Z,99697.59
2022-10-19T18:01:37.416Z,99697.72
2022-10-19T18:04:05.746Z,99695.19
2022-10-19T18:06:37.190Z,99700.63
2022-10-19T18:09:08.897Z,99703.44
2022-10-19T18:11:44.952Z,99705.41
2022-10-19T18:14:13.177Z,99705.50
2022-10-19T18:16:45.475Z,99701.13
2022-10-19T18:19:16.179Z,99700.16
2022-10-19T18:21:46.573Z,99709.00
2022-10-19T18:24:19.808Z,99704.75
2022-10-19T18:26:50.164Z,99701.38
2022-10-19T18:29:21.791Z,99704.97
2022-10-19T18:31:52.384Z,99708.63
2022-10-19T18:34:25.408Z,99710.56
2022-10-19T18:36:54.018Z,99700.19
2022-10-19T18:39:21.254Z,99699.38
2022-10-19T18:41:54.492Z,99697.59
2022-10-19T18:44:27.255Z,99697.69
2022-10-19T18:46:57.469Z,99700.41
2022-10-19T18:49:25.099Z,99698.75
2022-10-19T18:51:55.311Z,99700.53
2022-10-19T18:54:26.471Z,99700.44
2022-10-19T18:56:54.856Z,99696.16
2022-10-19T18:59:22.549Z,99693.56
2022-10-19T19:01:49.944Z,99692.81
2022-10-19T19:04:16.914Z,99692.91
2022-10-19T19:06:45.540Z,99691.25
2022-10-19T19:09:13.387Z,99696.75
2022-10-19T19:11:42.898Z,99694.97
2022-10-19T19:14:17.324Z,99687.00
2022-10-19T19:16:46.063Z,99692.25
2022-10-19T19:19:20.683Z,99687.06
2022-10-19T19:21:53.100Z,99691.50
2022-10-19T19:24:23.193Z,99687.00
2022-10-19T19:26:53.727Z,99682.72
2022-10-19T19:29:22.342Z,99682.75
2022-10-19T19:31:50.276Z,99683.56
2022-10-19T19:34:18.172Z,99680.91
2022-10-19T19:36:49.081Z,99677.38
2022-10-19T19:39:21.041Z,99684.47
2022-10-19T19:41:50.037Z,99683.72
2022-10-19T19:44:17.656Z,99679.41
2022-10-19T19:46:44.838Z,99685.66
2022-10-19T19:49:12.190Z,99688.50
2022-10-19T19:51:39.462Z,99691.19
2022-10-19T19:54:06.558Z,99689.59
2022-10-19T19:56:33.819Z,99692.53
2022-10-19T19:59:03.778Z,99691.81
2022-10-19T20:01:32.716Z,99697.25
2022-10-19T20:06:31.376Z,99693.88
2022-10-19T20:08:58.426Z,99693.09
2022-10-19T20:11:28.433Z,99699.19
2022-10-19T20:13:55.994Z,99699.28
2022-10-19T20:16:29.222Z,99697.66
2022-10-19T20:19:13.601Z,99693.50
2022-10-19T20:21:41.942Z,99693.41
2022-10-19T20:24:09.828Z,99697.03
2022-10-19T20:26:36.952Z,99698.03
2022-10-19T20:29:05.335Z,99696.38
2022-10-19T20:31:38.835Z,99700.84
2022-10-19T20:34:13.744Z,99700.94
2022-10-19T20:36:41.343Z,99693.13
2022-10-19T20:39:09.826Z,99702.94
2022-10-19T20:41:37.169Z,99694.19
2022-10-19T20:44:04.610Z,99703.06
2022-10-19T20:46:32.153Z,99698.00
2022-10-19T20:49:01.595Z,99696.34
2022-10-19T20:51:36.515Z,99697.31
2022-10-19T20:54:07.191Z,99695.53
2022-10-19T20:56:37.568Z,99690.44
2022-10-19T20:59:14.634Z,99696.53
2022-10-19T21:01:43.587Z,99695.63
2022-10-19T21:04:13.395Z,99687.06
2022-10-19T21:06:44.417Z,99695.00
2022-10-19T21:09:14.782Z,99700.31
2022-10-19T21:11:43.771Z,99705.66
2022-10-19T21:14:17.900Z,99701.34
2022-10-19T21:16:45.774Z,99700.38
2022-10-19T21:19:21.377Z,99698.66
2022-10-19T21:21:55.430Z,99695.28
2022-10-19T21:24:26.985Z,99696.31
2022-10-19T21:26:54.705Z,99699.06
2022-10-19T21:29:21.796Z,99696.50
2022-10-19T21:31:53.263Z,99698.38
2022-10-19T21:34:25.240Z,99698.47
2022-10-19T21:36:52.924Z,99692.19
2022-10-19T21:39:20.444Z,99694.78
2022-10-19T21:41:48.746Z,99694.84
2022-10-19T21:44:17.699Z,99701.78
2022-10-19T21:46:48.086Z,99685.19
2022-10-19T21:49:16.440Z,99689.56
2022-10-19T21:51:54.495Z,99695.97
2022-10-19T21:54:25.199Z,99683.69
2022-10-19T21:56:53.408Z,99689.09
2022-10-19T21:59:20.419Z,99690.03
2022-10-19T22:01:47.616Z,99691.00
2022-10-19T22:04:17.866Z,99689.31
2022-10-19T22:06:45.353Z,99689.44
2022-10-19T22:09:19.624Z,99686.78
2022-10-19T22:11:46.826Z,99695.66
2022-10-19T22:14:16.059Z,99688.75
2022-10-19T22:16:43.126Z,99687.06
2022-10-19T22:19:10.630Z,99688.94
2022-10-19T22:24:09.939Z,99677.03
2022-10-19T22:26:42.526Z,99681.31
2022-10-19T22:29:09.663Z,99681.25
2022-10-19T22:31:37.513Z,99675.13
2022-10-19T22:34:08.898Z,99676.97
2022-10-19T22:36:36.426Z,99675.25
2022-10-19T22:39:04.518Z,99676.09
2022-10-19T22:42:46.985Z,99677.03
2022-10-19T22:45:13.789Z,99675.59
2022-10-19T22:47:40.921Z,99673.16
2022-10-19T22:50:11.670Z,99669.69
2022-10-19T22:52:39.145Z,99668.00
2022-10-19T22:55:06.466Z,99664.44
2022-10-19T22:57:33.898Z,99674.91
2022-10-19T23:00:00.741Z,99666.22
2022-10-19T23:02:29.452Z,99662.84
2022-10-19T23:04:56.372Z,99662.03
2022-10-19T23:07:23.729Z,99662.91
2022-10-19T23:09:50.611Z,99658.69
2022-10-19T23:12:17.658Z,99673.66
2022-10-19T23:14:44.532Z,99666.53
2022-10-19T23:17:11.527Z,99671.94
2022-10-19T23:19:38.581Z,99668.66
2022-10-19T23:22:05.660Z,99670.59
2022-10-19T23:24:32.557Z,99671.56
2022-10-19T23:26:59.669Z,99669.03
2022-10-19T23:29:26.821Z,99660.31
2022-10-19T23:31:53.958Z,99662.28
2022-10-19T23:34:21.205Z,99664.09
2022-10-19T23:36:48.320Z,99668.59
2022-10-19T23:39:15.252Z,99669.50
2022-10-19T23:41:42.302Z,99666.06
2022-10-19T23:44:10.302Z,99672.25
2022-10-19T23:46:37.213Z,99672.38
2022-10-19T23:49:04.055Z,99667.22
2022-10-19T23:51:31.003Z,99663.75
2022-10-19T23:53:57.898Z,99657.41
2022-10-19T23:56:28.536Z,99656.63
2022-10-19T23:58:56.388Z,99658.31
